sensor_id;sensor_type;location;lat;lon;timestamp;temperature;humidity
3794;DHT22;1912;51.358;12.282;2023-04-25T03:47:01;5.40;1.00
3794;DHT22;1912;51.358;12.282;2023-04-25T03:49:27;5.40;1.00
3794;DHT22;1912;51.358;12.282;2023-04-25T03:51:52;5.40;1.00
3794;DHT22;1912;51.358;12.282;2023-04-25T03:54:18;5.30;1.00
3794;DHT22;1912;51.358;12.282;2023-04-25T03:56:44;5.30;1.00
3794;DHT22;1912;51.358;12.282;2023-04-25T03:59:09;5.30;1.00
3794;DHT22;1912;51.358;12.282;2023-04-25T04:01:35;5.30;1.00
3794;DHT22;1912;51.358;12.282;2023-04-25T04:04:01;5.20;1.00
3794;DHT22;1912;51.358;12.282;2023-04-25T04:06:26;5.20;1.00
3794;DHT22;1912;51.358;12.282;2023-04-25T04:08:52;5.20;1.00
3794;DHT22;1912;51.358;12.282;2023-04-25T04:11:18;5.20;1.00
3794;DHT22;1912;51.358;12.282;2023-04-25T04:13:43;5.20;1.00
3794;DHT22;1912;51.358;12.282;2023-04-25T04:16:09;5.20;1.00
3794;DHT22;1912;51.358;12.282;2023-04-25T04:18:35;5.20;1.00
3794;DHT22;1912;51.358;12.282;2023-04-25T04:21:01;5.20;1.00
3794;DHT22;1912;51.358;12.282;2023-04-25T04:23:26;5.20;1.00
3794;DHT22;1912;51.358;12.282;2023-04-25T04:25:53;5.40;1.00
3794;DHT22;1912;51.358;12.282;2023-04-25T04:28:20;5.40;1.00
3794;DHT22;1912;51.358;12.282;2023-04-25T04:30:47;5.50;1.00
3794;DHT22;1912;51.358;12.282;2023-04-25T04:33:13;5.50;1.00
3794;DHT22;1912;51.358;12.282;2023-04-25T04:35:40;5.50;1.00
3794;DHT22;1912;51.358;12.282;2023-04-25T04:38:07;5.50;1.00
3794;DHT22;1912;51.358;12.282;2023-04-25T04:40:32;5.50;1.00
3794;DHT22;1912;51.358;12.282;2023-04-25T04:42:58;5.40;1.00
3794;DHT22;1912;51.358;12.282;2023-04-25T04:45:24;5.50;1.00
3794;DHT22;1912;51.358;12.282;2023-04-25T04:47:50;5.40;1.00
3794;DHT22;1912;51.358;12.282;2023-04-25T04:50:15;5.40;1.00
3794;DHT22;1912;51.358;12.282;2023-04-25T04:52:41;5.50;1.00
3794;DHT22;1912;51.358;12.282;2023-04-25T04:55:08;5.50;1.00
3794;DHT22;1912;51.358;12.282;2023-04-25T04:57:34;5.50;1.00
3794;DHT22;1912;51.358;12.282;2023-04-25T05:00:00;5.60;1.00
3794;DHT22;1912;51.358;12.282;2023-04-25T05:02:26;5.60;1.00
3794;DHT22;1912;51.358;12.282;2023-04-25T05:04:52;5.70;1.00
3794;DHT22;1912;51.358;12.282;2023-04-25T05:07:18;5.80;1.00
3794;DHT22;1912;51.358;12.282;2023-04-25T05:09:44;5.80;1.00
3794;DHT22;1912;51.358;12.282;2023-04-25T05:12:10;5.90;1.00
3794;DHT22;1912;51.358;12.282;2023-04-25T05:14:36;6.00;1.00
3794;DHT22;1912;51.358;12.282;2023-04-25T05:17:01;6.00;1.00
3794;DHT22;1912;51.358;12.282;2023-04-25T05:19:30;6.10;1.00
3794;DHT22;1912;51.358;12.282;2023-04-25T05:21:56;6.20;1.00
3794;DHT22;1912;51.358;12.282;2023-04-25T05:24:21;6.60;1.00
3794;DHT22;1912;51.358;12.282;2023-04-25T05:26:47;7.10;1.00
3794;DHT22;1912;51.358;12.282;2023-04-25T05:29:13;7.50;1.00
3794;DHT22;1912;51.358;12.282;2023-04-25T05:31:38;7.80;1.00
3794;DHT22;1912;51.358;12.282;2023-04-25T05:34:04;8.10;1.00
3794;DHT22;1912;51.358;12.282;2023-04-25T05:36:29;8.20;1.00
3794;DHT22;1912;51.358;12.282;2023-04-25T05:38:57;8.40;1.00
3794;DHT22;1912;51.358;12.282;2023-04-25T05:41:23;8.50;1.00
3794;DHT22;1912;51.358;12.282;2023-04-25T05:43:48;8.60;1.00
3794;DHT22;1912;51.358;12.282;2023-04-25T05:46:15;8.70;1.00
3794;DHT22;1912;51.358;12.282;2023-04-25T05:48:42;8.80;1.00
3794;DHT22;1912;51.358;12.282;2023-04-25T05:51:08;8.70;1.00
3794;DHT22;1912;51.358;12.282;2023-04-25T05:53:34;8.50;1.00
3794;DHT22;1912;51.358;12.282;2023-04-25T05:56:00;8.80;1.00
3794;DHT22;1912;51.358;12.282;2023-04-25T05:58:26;9.00;1.00
3794;DHT22;1912;51.358;12.282;2023-04-25T06:00:52;8.70;1.00
3794;DHT22;1912;51.358;12.282;2023-04-25T06:03:17;8.70;1.00
3794;DHT22;1912;51.358;12.282;2023-04-25T06:05:43;8.60;1.00
3794;DHT22;1912;51.358;12.282;2023-04-25T06:08:09;8.70;1.00
3794;DHT22;1912;51.358;12.282;2023-04-25T06:10:36;8.60;1.00
3794;DHT22;1912;51.358;12.282;2023-04-25T06:13:02;8.70;1.00
3794;DHT22;1912;51.358;12.282;2023-04-25T06:15:28;8.80;1.00
3794;DHT22;1912;51.358;12.282;2023-04-25T06:17:54;8.60;1.00
3794;DHT22;1912;51.358;12.282;2023-04-25T06:20:20;8.60;1.00
3794;DHT22;1912;51.358;12.282;2023-04-25T06:22:48;8.50;1.00
3794;DHT22;1912;51.358;12.282;2023-04-25T06:25:15;8.60;1.00
3794;DHT22;1912;51.358;12.282;2023-04-25T06:27:41;8.70;1.00
3794;DHT22;1912;51.358;12.282;2023-04-25T06:30:07;8.80;1.00
3794;DHT22;1912;51.358;12.282;2023-04-25T06:32:33;8.80;1.00
3794;DHT22;1912;51.358;12.282;2023-04-25T06:34:59;8.60;1.00
3794;DHT22;1912;51.358;12.282;2023-04-25T06:37:25;8.40;1.00
3794;DHT22;1912;51.358;12.282;2023-04-25T06:39:51;8.80;1.00
3794;DHT22;1912;51.358;12.282;2023-04-25T06:42:17;8.70;1.00
3794;DHT22;1912;51.358;12.282;2023-04-25T06:44:43;8.80;1.00
3794;DHT22;1912;51.358;12.282;2023-04-25T06:47:08;8.70;1.00
3794;DHT22;1912;51.358;12.282;2023-04-25T06:49:34;8.50;1.00
3794;DHT22;1912;51.358;12.282;2023-04-25T06:51:59;8.60;1.00
3794;DHT22;1912;51.358;12.282;2023-04-25T06:54:25;8.60;1.00
3794;DHT22;1912;51.358;12.282;2023-04-25T06:56:53;8.40;1.00
3794;DHT22;1912;51.358;12.282;2023-04-25T06:59:18;8.40;1.00
3794;DHT22;1912;51.358;12.282;2023-04-25T07:01:44;8.30;1.00
3794;DHT22;1912;51.358;12.282;2023-04-25T07:04:10;8.30;1.00
3794;DHT22;1912;51.358;12.282;2023-04-25T07:06:36;8.30;1.00
3794;DHT22;1912;51.358;12.282;2023-04-25T07:09:10;8.30;1.00
3794;DHT22;1912;51.358;12.282;2023-04-25T07:11:36;8.30;1.00
3794;DHT22;1912;51.358;12.282;2023-04-25T07:14:02;8.30;1.00
3794;DHT22;1912;51.358;12.282;2023-04-25T07:16:28;8.30;1.00
3794;DHT22;1912;51.358;12.282;2023-04-25T07:18:54;8.30;1.00
3794;DHT22;1912;51.358;12.282;2023-04-25T07:21:20;8.40;1.00
3794;DHT22;1912;51.358;12.282;2023-04-25T07:23:45;8.20;1.00
3794;DHT22;1912;51.358;12.282;2023-04-25T07:26:11;8.30;1.00
3794;DHT22;1912;51.358;12.282;2023-04-25T07:28:37;8.30;1.00
3794;DHT22;1912;51.358;12.282;2023-04-25T07:31:03;8.20;1.00
3794;DHT22;1912;51.358;12.282;2023-04-25T07:33:29;8.30;1.00
3794;DHT22;1912;51.358;12.282;2023-04-25T07:35:55;8.30;1.00
3794;DHT22;1912;51.358;12.282;2023-04-25T07:38:21;8.30;1.00
3794;DHT22;1912;51.358;12.282;2023-04-25T07:40:48;8.30;1.00
3794;DHT22;1912;51.358;12.282;2023-04-25T07:43:14;8.30;1.00
3794;DHT22;1912;51.358;12.282;2023-04-25T07:45:45;8.30;1.00
3794;DHT22;1912;51.358;12.282;2023-04-25T07:48:16;8.20;1.00
3794;DHT22;1912;51.358;12.282;2023-04-25T07:50:42;8.20;1.00
3794;DHT22;1912;51.358;12.282;2023-04-25T07:53:08;8.10;1.00
3794;DHT22;1912;51.358;12.282;2023-04-25T07:55:34;8.20;1.00
3794;DHT22;1912;51.358;12.282;2023-04-25T07:58:01;8.10;1.00
3794;DHT22;1912;51.358;12.282;2023-04-25T08:00:28;8.20;1.00
3794;DHT22;1912;51.358;12.282;2023-04-25T08:02:54;8.20;1.00
3794;DHT22;1912;51.358;12.282;2023-04-25T08:05:19;8.20;1.00
3794;DHT22;1912;51.358;12.282;2023-04-25T08:07:45;8.40;1.00
3794;DHT22;1912;51.358;12.282;2023-04-25T08:10:11;8.40;1.00
3794;DHT22;1912;51.358;12.282;2023-04-25T08:12:37;8.40;1.00
3794;DHT22;1912;51.358;12.282;2023-04-25T08:15:03;8.40;1.00
3794;DHT22;1912;51.358;12.282;2023-04-25T08:17:29;8.60;1.00
3794;DHT22;1912;51.358;12.282;2023-04-25T08:19:54;8.70;1.00
3794;DHT22;1912;51.358;12.282;2023-04-25T08:22:20;8.80;1.00
3794;DHT22;1912;51.358;12.282;2023-04-25T08:24:46;8.90;1.00
3794;DHT22;1912;51.358;12.282;2023-04-25T08:27:11;9.10;1.00
3794;DHT22;1912;51.358;12.282;2023-04-25T08:29:37;9.10;1.00
3794;DHT22;1912;51.358;12.282;2023-04-25T08:32:03;9.10;1.00
3794;DHT22;1912;51.358;12.282;2023-04-25T08:34:28;9.10;1.00
3794;DHT22;1912;51.358;12.282;2023-04-25T08:36:54;9.20;1.00
3794;DHT22;1912;51.358;12.282;2023-04-25T08:39:20;9.20;1.00
3794;DHT22;1912;51.358;12.282;2023-04-25T08:41:46;9.30;1.00
3794;DHT22;1912;51.358;12.282;2023-04-25T08:44:12;9.20;1.00
3794;DHT22;1912;51.358;12.282;2023-04-25T08:46:39;9.40;1.00
3794;DHT22;1912;51.358;12.282;2023-04-25T08:49:08;9.30;1.00
3794;DHT22;1912;51.358;12.282;2023-04-25T08:51:36;9.10;1.00
3794;DHT22;1912;51.358;12.282;2023-04-25T08:54:11;9.30;1.00
3794;DHT22;1912;51.358;12.282;2023-04-25T08:56:39;9.60;1.00
3794;DHT22;1912;51.358;12.282;2023-04-25T08:59:07;9.80;1.00
3794;DHT22;1912;51.358;12.282;2023-04-25T09:01:34;9.80;1.00
3794;DHT22;1912;51.358;12.282;2023-04-25T09:04:01;9.80;1.00
3794;DHT22;1912;51.358;12.282;2023-04-25T09:06:29;9.90;1.00
3794;DHT22;1912;51.358;12.282;2023-04-25T09:09:02;9.90;1.00
3794;DHT22;1912;51.358;12.282;2023-04-25T09:11:29;9.70;1.00
3794;DHT22;1912;51.358;12.282;2023-04-25T09:14:17;9.80;1.00
3794;DHT22;1912;51.358;12.282;2023-04-25T09:17:00;9.70;1.00
3794;DHT22;1912;51.358;12.282;2023-04-25T09:21:57;9.70;1.00
3794;DHT22;1912;51.358;12.282;2023-04-25T09:24:40;9.70;1.00
3794;DHT22;1912;51.358;12.282;2023-04-25T09:27:13;9.60;1.00
3794;DHT22;1912;51.358;12.282;2023-04-25T09:29:43;9.30;1.00
3794;DHT22;1912;51.358;12.282;2023-04-25T09:32:15;9.20;1.00
3794;DHT22;1912;51.358;12.282;2023-04-25T09:34:48;9.30;1.00
3794;DHT22;1912;51.358;12.282;2023-04-25T09:37:19;9.10;1.00
3794;DHT22;1912;51.358;12.282;2023-04-25T09:39:47;9.20;1.00
3794;DHT22;1912;51.358;12.282;2023-04-25T09:42:15;9.20;1.00
3794;DHT22;1912;51.358;12.282;2023-04-25T09:44:46;9.10;1.00
3794;DHT22;1912;51.358;12.282;2023-04-25T09:47:13;9.10;1.00
3794;DHT22;1912;51.358;12.282;2023-04-25T09:49:41;9.20;1.00
3794;DHT22;1912;51.358;12.282;2023-04-25T09:52:08;9.30;1.00
3794;DHT22;1912;51.358;12.282;2023-04-25T09:54:34;9.40;1.00
3794;DHT22;1912;51.358;12.282;2023-04-25T09:57:21;9.40;1.00
3794;DHT22;1912;51.358;12.282;2023-04-25T09:59:53;9.40;1.00
3794;DHT22;1912;51.358;12.282;2023-04-25T10:02:21;9.20;1.00
3794;DHT22;1912;51.358;12.282;2023-04-25T10:04:51;9.10;1.00
3794;DHT22;1912;51.358;12.282;2023-04-25T10:07:20;9.10;1.00
3794;DHT22;1912;51.358;12.282;2023-04-25T10:09:57;9.10;1.00
3794;DHT22;1912;51.358;12.282;2023-04-25T10:12:28;9.30;1.00
3794;DHT22;1912;51.358;12.282;2023-04-25T10:14:55;9.30;1.00
3794;DHT22;1912;51.358;12.282;2023-04-25T10:17:21;9.10;1.00
3794;DHT22;1912;51.358;12.282;2023-04-25T10:19:47;9.20;1.00
3794;DHT22;1912;51.358;12.282;2023-04-25T10:22:18;9.30;1.00
3794;DHT22;1912;51.358;12.282;2023-04-25T10:24:50;9.40;1.00
3794;DHT22;1912;51.358;12.282;2023-04-25T10:27:16;9.30;1.00
3794;DHT22;1912;51.358;12.282;2023-04-25T10:29:42;9.40;1.00
3794;DHT22;1912;51.358;12.282;2023-04-25T10:32:10;9.60;1.00
3794;DHT22;1912;51.358;12.282;2023-04-25T10:34:41;9.60;1.00
3794;DHT22;1912;51.358;12.282;2023-04-25T10:37:09;9.50;1.00
3794;DHT22;1912;51.358;12.282;2023-04-25T10:39:41;9.50;1.00
3794;DHT22;1912;51.358;12.282;2023-04-25T10:42:07;9.30;1.00
3794;DHT22;1912;51.358;12.282;2023-04-25T10:44:34;9.30;1.00
3794;DHT22;1912;51.358;12.282;2023-04-25T10:47:01;9.40;1.00
3794;DHT22;1912;51.358;12.282;2023-04-25T10:49:36;9.50;1.00
3794;DHT22;1912;51.358;12.282;2023-04-25T10:52:13;9.40;1.00
3794;DHT22;1912;51.358;12.282;2023-04-25T10:54:46;9.40;1.00
3794;DHT22;1912;51.358;12.282;2023-04-25T11:00:16;9.60;1.00
3794;DHT22;1912;51.358;12.282;2023-04-25T11:02:51;9.60;1.00
3794;DHT22;1912;51.358;12.282;2023-04-25T11:05:34;9.50;1.00
3794;DHT22;1912;51.358;12.282;2023-04-25T11:08:01;9.50;1.00
3794;DHT22;1912;51.358;12.282;2023-04-25T11:10:30;9.50;1.00
3794;DHT22;1912;51.358;12.282;2023-04-25T11:12:57;9.40;1.00
3794;DHT22;1912;51.358;12.282;2023-04-25T11:15:24;9.30;1.00
3794;DHT22;1912;51.358;12.282;2023-04-25T11:17:54;9.40;1.00
3794;DHT22;1912;51.358;12.282;2023-04-25T11:20:21;9.30;1.00
3794;DHT22;1912;51.358;12.282;2023-04-25T11:22:47;9.30;1.00
3794;DHT22;1912;51.358;12.282;2023-04-25T11:25:14;9.30;1.00
3794;DHT22;1912;51.358;12.282;2023-04-25T11:27:51;9.30;1.00
3794;DHT22;1912;51.358;12.282;2023-04-25T11:30:18;9.30;1.00
3794;DHT22;1912;51.358;12.282;2023-04-25T11:32:45;9.30;1.00
3794;DHT22;1912;51.358;12.282;2023-04-25T11:35:11;9.40;1.00
3794;DHT22;1912;51.358;12.282;2023-04-25T11:37:39;9.40;1.00
3794;DHT22;1912;51.358;12.282;2023-04-25T11:40:06;9.40;1.00
3794;DHT22;1912;51.358;12.282;2023-04-25T11:42:34;9.40;1.00
3794;DHT22;1912;51.358;12.282;2023-04-25T11:45:00;9.30;1.00
3794;DHT22;1912;51.358;12.282;2023-04-25T11:47:32;9.40;1.00
3794;DHT22;1912;51.358;12.282;2023-04-25T11:50:00;9.50;1.00
3794;DHT22;1912;51.358;12.282;2023-04-25T11:52:43;9.50;1.00
3794;DHT22;1912;51.358;12.282;2023-04-25T11:55:21;9.40;1.00
3794;DHT22;1912;51.358;12.282;2023-04-25T11:57:48;9.30;1.00
3794;DHT22;1912;51.358;12.282;2023-04-25T12:00:20;9.40;1.00
3794;DHT22;1912;51.358;12.282;2023-04-25T12:02:51;9.50;1.00
3794;DHT22;1912;51.358;12.282;2023-04-25T12:05:17;9.60;1.00
3794;DHT22;1912;51.358;12.282;2023-04-25T12:07:43;9.70;1.00
3794;DHT22;1912;51.358;12.282;2023-04-25T12:10:11;9.90;1.00
3794;DHT22;1912;51.358;12.282;2023-04-25T12:12:41;10.40;1.00
3794;DHT22;1912;51.358;12.282;2023-04-25T12:15:18;10.60;1.00
3794;DHT22;1912;51.358;12.282;2023-04-25T12:17:49;10.80;1.00
3794;DHT22;1912;51.358;12.282;2023-04-25T12:20:20;10.80;1.00
3794;DHT22;1912;51.358;12.282;2023-04-25T12:22:49;10.40;1.00
3794;DHT22;1912;51.358;12.282;2023-04-25T12:25:40;10.30;1.00
3794;DHT22;1912;51.358;12.282;2023-04-25T12:28:19;9.90;1.00
3794;DHT22;1912;51.358;12.282;2023-04-25T12:33:35;9.70;1.00
3794;DHT22;1912;51.358;12.282;2023-04-25T12:36:03;9.80;1.00
3794;DHT22;1912;51.358;12.282;2023-04-25T12:38:41;9.70;1.00
3794;DHT22;1912;51.358;12.282;2023-04-25T12:41:08;9.70;1.00
3794;DHT22;1912;51.358;12.282;2023-04-25T12:43:34;9.70;1.00
3794;DHT22;1912;51.358;12.282;2023-04-25T12:46:00;9.80;1.00
3794;DHT22;1912;51.358;12.282;2023-04-25T12:48:26;9.80;1.00
3794;DHT22;1912;51.358;12.282;2023-04-25T12:50:52;9.70;1.00
3794;DHT22;1912;51.358;12.282;2023-04-25T12:53:19;9.70;1.00
3794;DHT22;1912;51.358;12.282;2023-04-25T12:55:46;9.60;1.00
3794;DHT22;1912;51.358;12.282;2023-04-25T12:58:13;9.70;1.00
3794;DHT22;1912;51.358;12.282;2023-04-25T13:00:39;9.60;1.00
3794;DHT22;1912;51.358;12.282;2023-04-25T13:03:04;9.50;1.00
3794;DHT22;1912;51.358;12.282;2023-04-25T13:05:30;9.40;1.00
3794;DHT22;1912;51.358;12.282;2023-04-25T13:07:56;9.50;1.00
3794;DHT22;1912;51.358;12.282;2023-04-25T13:10:22;9.40;1.00
3794;DHT22;1912;51.358;12.282;2023-04-25T13:12:48;9.40;1.00
3794;DHT22;1912;51.358;12.282;2023-04-25T13:15:13;9.30;1.00
3794;DHT22;1912;51.358;12.282;2023-04-25T13:17:41;9.40;1.00
3794;DHT22;1912;51.358;12.282;2023-04-25T13:20:07;9.50;1.00
3794;DHT22;1912;51.358;12.282;2023-04-25T13:22:36;9.50;1.00
3794;DHT22;1912;51.358;12.282;2023-04-25T13:25:03;9.70;1.00
3794;DHT22;1912;51.358;12.282;2023-04-25T13:27:29;9.90;1.00
3794;DHT22;1912;51.358;12.282;2023-04-25T13:29:57;10.20;1.00
3794;DHT22;1912;51.358;12.282;2023-04-25T13:32:23;10.50;1.00
3794;DHT22;1912;51.358;12.282;2023-04-25T13:34:50;10.90;1.00
3794;DHT22;1912;51.358;12.282;2023-04-25T13:37:16;11.00;1.00
3794;DHT22;1912;51.358;12.282;2023-04-25T13:39:42;11.40;1.00
3794;DHT22;1912;51.358;12.282;2023-04-25T13:42:07;11.30;1.00
3794;DHT22;1912;51.358;12.282;2023-04-25T13:44:33;11.40;1.00
3794;DHT22;1912;51.358;12.282;2023-04-25T13:46:59;11.70;1.00
3794;DHT22;1912;51.358;12.282;2023-04-25T13:49:26;11.50;1.00
3794;DHT22;1912;51.358;12.282;2023-04-25T13:51:51;11.60;1.00
3794;DHT22;1912;51.358;12.282;2023-04-25T13:54:17;11.70;1.00
3794;DHT22;1912;51.358;12.282;2023-04-25T13:56:43;11.30;1.00
3794;DHT22;1912;51.358;12.282;2023-04-25T13:59:08;11.10;1.00
3794;DHT22;1912;51.358;12.282;2023-04-25T14:01:34;11.20;1.00
3794;DHT22;1912;51.358;12.282;2023-04-25T14:04:01;11.10;1.00
3794;DHT22;1912;51.358;12.282;2023-04-25T14:06:29;10.80;1.00
3794;DHT22;1912;51.358;12.282;2023-04-25T14:08:54;10.80;1.00
3794;DHT22;1912;51.358;12.282;2023-04-25T14:11:21;10.70;1.00
3794;DHT22;1912;51.358;12.282;2023-04-25T14:13:47;10.80;1.00
3794;DHT22;1912;51.358;12.282;2023-04-25T14:16:15;10.80;1.00
3794;DHT22;1912;51.358;12.282;2023-04-25T14:18:41;10.50;1.00
3794;DHT22;1912;51.358;12.282;2023-04-25T14:21:07;10.60;1.00
3794;DHT22;1912;51.358;12.282;2023-04-25T14:23:33;10.40;1.00
3794;DHT22;1912;51.358;12.282;2023-04-25T14:25:58;10.50;1.00
3794;DHT22;1912;51.358;12.282;2023-04-25T14:28:24;10.50;1.00
3794;DHT22;1912;51.358;12.282;2023-04-25T14:30:50;10.50;1.00
3794;DHT22;1912;51.358;12.282;2023-04-25T14:33:15;10.50;1.00
3794;DHT22;1912;51.358;12.282;2023-04-25T14:35:41;10.50;1.00
3794;DHT22;1912;51.358;12.282;2023-04-25T14:38:07;10.50;1.00
3794;DHT22;1912;51.358;12.282;2023-04-25T14:40:33;10.50;1.00
3794;DHT22;1912;51.358;12.282;2023-04-25T14:42:58;10.50;1.00
3794;DHT22;1912;51.358;12.282;2023-04-25T14:45:24;10.40;1.00
3794;DHT22;1912;51.358;12.282;2023-04-25T14:47:50;10.50;1.00
3794;DHT22;1912;51.358;12.282;2023-04-25T14:50:17;10.50;1.00
3794;DHT22;1912;51.358;12.282;2023-04-25T14:52:43;10.50;1.00
3794;DHT22;1912;51.358;12.282;2023-04-25T14:55:09;10.50;1.00
3794;DHT22;1912;51.358;12.282;2023-04-25T14:57:35;10.40;1.00
3794;DHT22;1912;51.358;12.282;2023-04-25T15:00:01;10.40;1.00
3794;DHT22;1912;51.358;12.282;2023-04-25T15:02:30;10.40;1.00
3794;DHT22;1912;51.358;12.282;2023-04-25T15:04:56;10.30;1.00
3794;DHT22;1912;51.358;12.282;2023-04-25T15:07:22;10.20;1.00
3794;DHT22;1912;51.358;12.282;2023-04-25T15:09:48;10.20;1.00
3794;DHT22;1912;51.358;12.282;2023-04-25T15:12:14;10.20;1.00
3794;DHT22;1912;51.358;12.282;2023-04-25T15:14:39;10.20;1.00
3794;DHT22;1912;51.358;12.282;2023-04-25T15:17:05;10.40;1.00
3794;DHT22;1912;51.358;12.282;2023-04-25T15:19:31;10.40;1.00
3794;DHT22;1912;51.358;12.282;2023-04-25T15:21:57;10.30;1.00
3794;DHT22;1912;51.358;12.282;2023-04-25T15:24:25;10.40;1.00
3794;DHT22;1912;51.358;12.282;2023-04-25T15:26:51;10.30;1.00
3794;DHT22;1912;51.358;12.282;2023-04-25T15:29:17;10.40;1.00
